createdAt,value
2018-03-16T00:02:12.700Z,26.00
2018-03-16T00:05:23.423Z,25.33
2018-03-16T00:08:34.942Z,24.55
2018-03-16T00:11:45.014Z,20.98
2018-03-16T00:14:55.073Z,24.40
2018-03-16T00:18:04.811Z,26.85
2018-03-16T00:21:15.010Z,15.88
2018-03-16T00:24:24.935Z,18.70
2018-03-16T00:27:35.678Z,22.23
2018-03-16T00:30:45.536Z,24.73
2018-03-16T00:33:55.429Z,24.27
2018-03-16T00:37:05.206Z,23.92
2018-03-16T00:40:15.158Z,22.23
2018-03-16T00:43:25.761Z,24.92
2018-03-16T00:46:36.005Z,27.55
2018-03-16T00:49:46.933Z,24.42
2018-03-16T00:52:57.045Z,26.90
2018-03-16T00:56:06.906Z,22.52
2018-03-16T00:59:16.829Z,25.12
2018-03-16T01:02:27.670Z,27.27
2018-03-16T01:05:37.828Z,25.23
2018-03-16T01:08:47.734Z,22.83
2018-03-16T01:11:57.729Z,22.48
2018-03-16T01:15:08.448Z,26.55
2018-03-16T01:18:18.485Z,24.25
2018-03-16T01:21:29.255Z,24.33
2018-03-16T01:24:39.018Z,19.55
2018-03-16T01:27:48.922Z,26.60
2018-03-16T01:30:58.910Z,25.48
2018-03-16T01:34:08.851Z,25.05
2018-03-16T01:37:18.730Z,22.42
2018-03-16T01:40:28.635Z,26.75
2018-03-16T01:43:38.602Z,21.87
2018-03-16T01:46:49.321Z,24.40
2018-03-16T01:49:59.568Z,26.25
2018-03-16T01:53:17.196Z,28.15
2018-03-16T01:56:27.914Z,25.25
2018-03-16T01:59:37.832Z,25.75
2018-03-16T02:02:47.820Z,20.83
2018-03-16T02:05:57.631Z,26.23
2018-03-16T02:09:07.378Z,26.85
2018-03-16T02:12:17.432Z,25.90
2018-03-16T02:15:27.240Z,23.20
2018-03-16T02:18:37.260Z,26.42
2018-03-16T02:21:47.970Z,23.23
2018-03-16T02:24:58.182Z,24.27
2018-03-16T02:28:07.999Z,24.50
2018-03-16T02:31:18.794Z,25.30
2018-03-16T02:34:29.439Z,26.17
2018-03-16T02:37:39.528Z,23.92
2018-03-16T02:40:50.226Z,24.25
2018-03-16T02:44:00.281Z,23.62
2018-03-16T02:47:10.233Z,28.92
2018-03-16T02:50:20.306Z,24.48
2018-03-16T02:53:30.116Z,24.45
2018-03-16T02:56:40.878Z,27.98
2018-03-16T02:59:50.654Z,22.30
2018-03-16T03:03:00.642Z,22.60
2018-03-16T03:06:10.526Z,26.70
2018-03-16T03:09:20.546Z,24.12
2018-03-16T03:12:30.406Z,28.58
2018-03-16T03:15:40.579Z,25.50
2018-03-16T03:18:50.500Z,25.70
2018-03-16T03:22:00.624Z,19.48
2018-03-16T03:25:10.356Z,27.80
2018-03-16T03:28:21.109Z,24.98
2018-03-16T03:31:30.952Z,27.62
2018-03-16T03:34:40.922Z,26.58
2018-03-16T03:37:51.006Z,25.20
2018-03-16T03:41:00.848Z,24.08
2018-03-16T03:44:10.613Z,26.35
2018-03-16T03:47:20.408Z,27.83
2018-03-16T03:50:30.294Z,26.58
2018-03-16T03:53:40.173Z,25.92
2018-03-16T03:56:50.097Z,28.27
2018-03-16T03:59:59.871Z,29.15
2018-03-16T04:03:09.774Z,30.80
2018-03-16T04:06:20.510Z,28.25
2018-03-16T04:09:30.938Z,29.73
2018-03-16T04:12:42.509Z,28.58
2018-03-16T04:15:53.042Z,30.23
2018-03-16T04:19:02.972Z,26.50
2018-03-16T04:22:12.713Z,28.67
2018-03-16T04:25:22.626Z,19.75
2018-03-16T04:28:33.226Z,22.77
2018-03-16T04:31:43.492Z,28.10
2018-03-16T04:34:54.162Z,30.08
2018-03-16T04:38:05.089Z,25.17
2018-03-16T04:41:15.136Z,22.65
2018-03-16T04:44:24.730Z,21.65
2018-03-16T04:47:34.819Z,25.33
2018-03-16T04:50:44.752Z,28.00
2018-03-16T04:53:55.336Z,31.98
2018-03-16T04:57:05.346Z,28.10
2018-03-16T05:00:15.890Z,29.63
2018-03-16T05:03:26.590Z,30.05
2018-03-16T05:06:36.638Z,24.52
2018-03-16T05:09:47.189Z,21.87
2018-03-16T05:12:57.137Z,25.65
2018-03-16T05:16:07.017Z,22.92
2018-03-16T05:19:17.719Z,25.25
2018-03-16T05:22:28.296Z,21.77
2018-03-16T05:25:38.835Z,22.95
2018-03-16T05:28:49.013Z,24.23
2018-03-16T05:31:58.795Z,22.92
2018-03-16T05:35:08.705Z,23.25
2018-03-16T05:38:18.566Z,27.37
2018-03-16T05:41:28.509Z,27.05
2018-03-16T05:44:38.492Z,25.15
2018-03-16T05:47:48.591Z,23.65
2018-03-16T05:50:58.585Z,24.77
2018-03-16T05:54:09.868Z,30.73
2018-03-16T05:57:20.341Z,26.08
2018-03-16T06:00:30.319Z,25.40
2018-03-16T06:03:40.118Z,21.83
2018-03-16T06:06:49.897Z,23.73
2018-03-16T06:10:00.428Z,22.58
2018-03-16T06:13:10.673Z,22.75
2018-03-16T06:16:20.660Z,27.85
2018-03-16T06:19:32.216Z,24.20
2018-03-16T06:22:44.139Z,27.23
2018-03-16T06:25:54.590Z,24.63
2018-03-16T06:29:05.292Z,27.17
2018-03-16T06:32:15.632Z,25.50
2018-03-16T06:35:25.572Z,21.77
2018-03-16T06:38:37.057Z,21.20
2018-03-16T06:41:47.531Z,26.23
2018-03-16T06:44:58.462Z,30.88
2018-03-16T06:48:08.684Z,24.27
2018-03-16T06:51:18.530Z,22.98
2018-03-16T06:54:28.278Z,26.52
2018-03-16T06:57:38.465Z,21.60
2018-03-16T07:00:49.146Z,22.83
2018-03-16T07:03:59.282Z,24.37
2018-03-16T07:07:09.489Z,23.60
2018-03-16T07:10:20.034Z,21.35
2018-03-16T07:13:29.982Z,22.15
2018-03-16T07:16:42.808Z,25.70
2018-03-16T07:19:56.924Z,23.38
2018-03-16T07:23:07.726Z,24.90
2018-03-16T07:26:18.518Z,24.17
2018-03-16T07:29:30.069Z,23.80
2018-03-16T07:32:41.197Z,26.65
2018-03-16T07:35:53.598Z,21.80
2018-03-16T07:39:04.072Z,25.08
2018-03-16T07:42:15.058Z,23.52
2018-03-16T07:45:30.793Z,23.38
2018-03-16T07:48:42.510Z,27.00
2018-03-16T07:51:53.798Z,24.20
2018-03-16T07:55:04.066Z,20.98
2018-03-16T07:58:15.469Z,21.00
2018-03-16T08:01:25.766Z,23.25
2018-03-16T08:04:36.628Z,23.30
2018-03-16T08:07:46.436Z,20.80
2018-03-16T08:10:56.412Z,17.70
2018-03-16T08:14:07.206Z,17.98
2018-03-16T08:17:17.511Z,18.15
2018-03-16T08:20:27.302Z,19.70
2018-03-16T08:23:38.024Z,20.98
2018-03-16T08:26:47.769Z,20.58
2018-03-16T08:29:57.669Z,16.12
2018-03-16T08:33:07.678Z,19.27
2018-03-16T08:36:17.702Z,17.48
2018-03-16T08:39:28.151Z,17.58
2018-03-16T08:42:38.052Z,13.55
2018-03-16T08:45:48.774Z,10.20
2018-03-16T08:48:59.432Z,9.73
2018-03-16T08:52:10.291Z,17.95
2018-03-16T08:55:20.840Z,20.27
2018-03-16T08:58:31.213Z,9.57
2018-03-16T09:01:41.063Z,9.43
2018-03-16T09:04:51.705Z,10.15
2018-03-16T09:08:02.728Z,9.02
2018-03-16T09:11:13.250Z,8.80
2018-03-16T09:14:23.678Z,10.38
2018-03-16T09:17:33.499Z,10.18
2018-03-16T09:20:44.229Z,10.07
2018-03-16T09:23:54.260Z,8.82
2018-03-16T09:27:04.969Z,9.43
2018-03-16T09:30:15.776Z,8.82
2018-03-16T09:33:26.407Z,11.80
2018-03-16T09:36:36.721Z,11.07
2018-03-16T09:39:46.744Z,9.00
2018-03-16T09:42:57.433Z,7.65
2018-03-16T09:46:08.107Z,8.52
2018-03-16T09:49:18.267Z,8.02
2018-03-16T09:52:28.601Z,8.90
2018-03-16T09:55:43.954Z,9.23
2018-03-16T09:58:55.669Z,7.70
2018-03-16T10:02:05.630Z,9.82
2018-03-16T10:05:15.512Z,7.12
2018-03-16T10:08:25.377Z,7.70
2018-03-16T10:11:36.309Z,6.12
2018-03-16T10:14:46.806Z,7.15
2018-03-16T10:17:57.510Z,7.47
2018-03-16T10:21:08.082Z,8.90
2018-03-16T10:24:18.147Z,7.60
2018-03-16T10:27:27.938Z,7.70
2018-03-16T10:30:38.552Z,7.07
2018-03-16T10:33:48.672Z,8.98
2018-03-16T10:36:58.594Z,6.72
2018-03-16T10:40:09.182Z,6.65
2018-03-16T10:43:19.839Z,7.15
2018-03-16T10:46:29.863Z,7.40
2018-03-16T10:49:41.382Z,7.45
2018-03-16T10:52:52.158Z,18.73
2018-03-16T10:56:02.692Z,7.87
2018-03-16T10:59:12.976Z,7.35
2018-03-16T11:02:23.489Z,8.82
2018-03-16T11:05:40.752Z,6.53
2018-03-16T11:08:50.572Z,8.77
2018-03-16T11:12:00.607Z,8.82
2018-03-16T11:15:12.210Z,8.52
2018-03-16T11:18:23.146Z,8.68
2018-03-16T11:21:33.267Z,12.05
2018-03-16T11:24:43.199Z,10.13
2018-03-16T11:27:53.927Z,13.30
2018-03-16T11:31:03.752Z,19.10
2018-03-16T11:34:13.997Z,18.65
2018-03-16T11:37:23.946Z,22.10
2018-03-16T11:40:34.539Z,16.48
2018-03-16T11:43:45.533Z,19.90
2018-03-16T11:46:56.050Z,19.58
2018-03-16T11:50:06.126Z,23.30
2018-03-16T11:53:16.953Z,18.83
2018-03-16T11:56:28.271Z,18.52
2018-03-16T11:59:39.545Z,20.70
2018-03-16T12:02:50.453Z,25.52
2018-03-16T12:06:00.871Z,19.85
2018-03-16T12:09:13.014Z,17.42
2018-03-16T12:12:23.365Z,18.10
2018-03-16T12:15:34.786Z,19.70
2018-03-16T12:18:45.557Z,16.00
2018-03-16T12:21:56.316Z,19.25
2018-03-16T12:25:07.287Z,15.85
2018-03-16T12:28:16.799Z,17.10
2018-03-16T12:31:27.338Z,18.75
2018-03-16T12:34:37.947Z,17.73
2018-03-16T12:37:49.539Z,15.20
2018-03-16T12:40:59.822Z,16.17
2018-03-16T12:44:11.130Z,13.57
2018-03-16T12:47:21.851Z,16.87
2018-03-16T12:50:32.191Z,13.88
2018-03-16T12:53:42.912Z,12.23
2018-03-16T12:56:53.355Z,13.02
2018-03-16T13:00:04.081Z,16.33
2018-03-16T13:03:14.502Z,14.00
2018-03-16T13:06:24.428Z,13.60
2018-03-16T13:09:34.244Z,14.87
2018-03-16T13:12:43.992Z,15.68
2018-03-16T13:15:53.862Z,11.73
2018-03-16T13:19:03.732Z,12.95
2018-03-16T13:22:14.249Z,19.73
2018-03-16T13:25:25.152Z,14.00
2018-03-16T13:28:35.130Z,11.57
2018-03-16T13:31:45.150Z,16.90
2018-03-16T13:34:55.885Z,14.50
2018-03-16T13:38:06.771Z,13.25
2018-03-16T13:41:16.869Z,8.98
2018-03-16T13:44:27.590Z,13.43
2018-03-16T13:47:37.341Z,14.85
2018-03-16T13:50:47.107Z,13.13
2018-03-16T13:53:57.211Z,14.15
2018-03-16T13:57:07.166Z,14.68
2018-03-16T14:00:17.882Z,14.50
2018-03-16T14:03:27.677Z,11.50
2018-03-16T14:06:38.379Z,11.60
2018-03-16T14:09:48.529Z,11.70
2018-03-16T14:12:58.404Z,13.25
2018-03-16T14:16:08.554Z,11.95
2018-03-16T14:19:18.536Z,13.82
2018-03-16T14:22:29.315Z,12.50
2018-03-16T14:25:39.589Z,9.40
2018-03-16T14:28:50.467Z,12.85
2018-03-16T14:32:00.529Z,12.45
2018-03-16T14:35:10.833Z,11.48
2018-03-16T14:38:21.649Z,13.32
2018-03-16T14:41:31.790Z,13.82
2018-03-16T14:44:41.691Z,9.10
2018-03-16T14:47:51.655Z,11.15
2018-03-16T14:51:01.492Z,13.23
2018-03-16T14:54:11.565Z,15.93
2018-03-16T14:57:22.324Z,14.05
2018-03-16T15:00:32.910Z,13.52
2018-03-16T15:03:43.114Z,14.32
2018-03-16T15:06:53.931Z,13.85
2018-03-16T15:10:04.385Z,13.73
2018-03-16T15:13:14.552Z,11.00
2018-03-16T15:16:25.414Z,11.45
2018-03-16T15:19:35.362Z,14.43
2018-03-16T15:22:45.285Z,13.68
2018-03-16T15:25:55.622Z,13.45
2018-03-16T15:29:05.549Z,13.75
2018-03-16T15:32:16.188Z,14.57
2018-03-16T15:35:26.168Z,12.05
2018-03-16T15:38:37.221Z,13.88
2018-03-16T15:41:47.865Z,15.10
2018-03-16T15:44:58.355Z,15.88
2018-03-16T15:48:08.372Z,15.40
2018-03-16T15:51:19.079Z,13.15
2018-03-16T15:54:28.963Z,18.17
2018-03-16T15:57:39.703Z,19.65
2018-03-16T16:00:50.430Z,13.40
2018-03-16T16:04:00.358Z,16.42
2018-03-16T16:07:11.066Z,13.15
2018-03-16T16:10:21.166Z,11.70
2018-03-16T16:13:31.981Z,14.75
2018-03-16T16:16:43.502Z,15.02
2018-03-16T16:19:53.558Z,14.32
2018-03-16T16:23:04.040Z,12.02
2018-03-16T16:26:13.967Z,16.73
2018-03-16T16:29:24.520Z,10.50
2018-03-16T16:32:35.210Z,13.18
2018-03-16T16:35:45.540Z,9.20
2018-03-16T16:38:56.897Z,13.88
2018-03-16T16:42:06.935Z,14.45
2018-03-16T16:45:17.411Z,11.85
2018-03-16T16:48:28.458Z,13.73
2018-03-16T16:51:38.684Z,8.02
2018-03-16T16:54:48.882Z,10.32
2018-03-16T16:57:59.943Z,12.95
2018-03-16T17:01:10.908Z,11.40
2018-03-16T17:04:20.787Z,15.43
2018-03-16T17:07:31.339Z,14.35
2018-03-16T17:10:42.338Z,10.65
2018-03-16T17:13:52.951Z,16.98
2018-03-16T17:17:03.170Z,9.57
2018-03-16T17:20:13.219Z,17.48
2018-03-16T17:23:23.040Z,12.70
2018-03-16T17:26:32.908Z,13.60
2018-03-16T17:29:42.767Z,13.48
2018-03-16T17:32:52.660Z,12.55
2018-03-16T17:36:02.611Z,19.27
2018-03-16T17:39:12.398Z,15.02
2018-03-16T17:42:22.122Z,16.27
2018-03-16T17:45:32.048Z,15.38
2018-03-16T17:48:41.976Z,17.50
2018-03-16T17:51:52.720Z,12.77
2018-03-16T17:55:02.630Z,17.30
2018-03-16T17:58:13.140Z,16.65
2018-03-16T18:01:24.022Z,13.73
2018-03-16T18:04:34.164Z,15.95
2018-03-16T18:07:44.444Z,18.10
2018-03-16T18:10:55.074Z,13.18
2018-03-16T18:14:04.918Z,13.55
2018-03-16T18:17:15.325Z,17.65
2018-03-16T18:20:25.546Z,21.65
2018-03-16T18:23:35.359Z,15.45
2018-03-16T18:26:45.147Z,14.63
2018-03-16T18:29:54.916Z,14.85
2018-03-16T18:33:04.835Z,18.65
2018-03-16T18:36:14.591Z,14.18
2018-03-16T18:39:24.565Z,11.57
2018-03-16T18:42:35.279Z,16.90
2018-03-16T18:45:45.948Z,17.95
2018-03-16T18:48:55.975Z,18.10
2018-03-16T18:52:06.981Z,16.52
2018-03-16T18:55:16.947Z,19.30
2018-03-16T18:58:27.648Z,17.08
2018-03-16T19:01:38.272Z,12.82
2018-03-16T19:04:48.371Z,19.15
2018-03-16T19:07:58.405Z,16.67
2018-03-16T19:11:09.081Z,15.65
2018-03-16T19:14:19.380Z,14.45
2018-03-16T19:17:29.530Z,15.73
2018-03-16T19:20:39.551Z,17.50
2018-03-16T19:23:49.616Z,18.55
2018-03-16T19:26:59.552Z,15.15
2018-03-16T19:30:09.542Z,18.45
2018-03-16T19:33:19.427Z,10.52
2018-03-16T19:36:29.320Z,17.70
2018-03-16T19:39:39.262Z,16.30
2018-03-16T19:42:49.881Z,15.25
2018-03-16T19:46:00.406Z,13.10
2018-03-16T19:49:11.750Z,17.05
2018-03-16T19:52:21.751Z,18.60
2018-03-16T19:55:32.189Z,18.20
2018-03-16T19:58:43.695Z,19.77
2018-03-16T20:01:56.640Z,18.25
2018-03-16T20:05:07.096Z,19.10
2018-03-16T20:08:16.873Z,15.13
2018-03-16T20:11:27.547Z,18.08
2018-03-16T20:14:37.463Z,14.02
2018-03-16T20:17:47.344Z,18.85
2018-03-16T20:20:57.168Z,17.25
2018-03-16T20:24:07.192Z,17.77
2018-03-16T20:27:19.021Z,20.98
2018-03-16T20:30:29.163Z,18.35
2018-03-16T20:33:39.444Z,20.35
2018-03-16T20:36:49.428Z,19.15
2018-03-16T20:39:59.561Z,16.70
2018-03-16T20:43:09.705Z,19.85
2018-03-16T20:46:19.624Z,15.90
2018-03-16T20:49:30.378Z,14.73
2018-03-16T20:52:40.509Z,19.70
2018-03-16T20:55:51.208Z,17.02
2018-03-16T20:59:01.295Z,13.62
2018-03-16T21:02:12.879Z,14.90
2018-03-16T21:05:22.677Z,15.88
2018-03-16T21:08:33.662Z,17.80
2018-03-16T21:11:44.614Z,16.92
2018-03-16T21:14:54.529Z,17.27
2018-03-16T21:18:05.249Z,18.23
2018-03-16T21:21:21.231Z,15.10
2018-03-16T21:24:32.782Z,15.93
2018-03-16T21:27:42.979Z,14.25
2018-03-16T21:30:53.560Z,14.20
2018-03-16T21:34:04.423Z,18.87
2018-03-16T21:37:15.259Z,18.40
2018-03-16T21:40:26.010Z,15.70
2018-03-16T21:43:36.082Z,15.48
2018-03-16T21:46:46.937Z,17.30
2018-03-16T21:50:02.459Z,17.33
2018-03-16T21:53:13.139Z,14.65
2018-03-16T21:56:24.007Z,12.75
2018-03-16T21:59:35.044Z,15.00
2018-03-16T22:02:44.633Z,19.15
2018-03-16T22:05:54.705Z,16.10
2018-03-16T22:09:03.910Z,21.08
2018-03-16T22:12:14.732Z,16.37
2018-03-16T22:15:25.589Z,16.77
2018-03-16T22:18:36.260Z,16.10
2018-03-16T22:21:46.346Z,12.50
2018-03-16T22:24:57.279Z,14.60
2018-03-16T22:28:07.595Z,15.50
2018-03-16T22:31:17.910Z,16.25
2018-03-16T22:37:45.002Z,16.30
2018-03-16T22:40:54.909Z,17.30
2018-03-16T22:44:04.900Z,14.68
2018-03-16T22:47:14.640Z,13.88
2018-03-16T22:50:24.909Z,10.18
2018-03-16T22:53:35.364Z,13.45
2018-03-16T22:56:45.406Z,16.48
2018-03-16T22:59:55.444Z,11.57
2018-03-16T23:03:05.490Z,15.45
2018-03-16T23:06:15.414Z,15.18
2018-03-16T23:09:26.215Z,18.42
2018-03-16T23:12:36.169Z,9.73
2018-03-16T23:15:46.001Z,16.62
2018-03-16T23:18:56.300Z,12.15
2018-03-16T23:22:07.115Z,14.90
2018-03-16T23:25:18.664Z,15.10
2018-03-16T23:28:28.944Z,13.80
2018-03-16T23:31:39.785Z,16.65
2018-03-16T23:34:49.761Z,13.32
2018-03-16T23:37:59.959Z,13.43
2018-03-16T23:41:09.800Z,15.40
2018-03-16T23:44:19.760Z,11.05
2018-03-16T23:47:29.873Z,13.82
2018-03-16T23:50:40.189Z,17.35
2018-03-16T23:53:50.331Z,15.80
2018-03-16T23:57:00.943Z,13.00
